createdAt,value
2022-12-06T00:07:31.259Z,1.82
2022-12-06T00:17:37.647Z,1.75
2022-12-06T00:27:45.312Z,1.76
2022-12-06T00:37:48.882Z,1.88
2022-12-06T00:47:52.531Z,1.92
2022-12-06T00:57:56.133Z,1.96
2022-12-06T01:08:00.070Z,1.96
2022-12-06T01:18:05.227Z,1.85
2022-12-06T01:28:08.831Z,1.86
2022-12-06T01:38:13.058Z,1.84
2022-12-06T01:48:16.980Z,1.91
2022-12-06T01:58:27.225Z,2.01
2022-12-06T02:08:30.917Z,1.93
2022-12-06T02:18:43.592Z,1.94
2022-12-06T02:29:18.585Z,2.02
2022-12-06T02:39:39.311Z,2.02
2022-12-06T02:49:46.902Z,2.11
2022-12-06T02:59:54.069Z,2.11
2022-12-06T03:10:25.826Z,2.13
2022-12-06T03:20:43.176Z,2.15
2022-12-06T03:30:51.349Z,2.19
2022-12-06T03:40:57.454Z,2.17
2022-12-06T03:51:05.952Z,2.10
2022-12-06T04:01:09.688Z,2.14
2022-12-06T04:11:13.331Z,2.14
2022-12-06T04:21:32.417Z,2.20
2022-12-06T04:31:56.421Z,2.15
2022-12-06T04:42:18.770Z,2.19
2022-12-06T04:52:22.539Z,2.24
2022-12-06T05:02:26.180Z,2.15
2022-12-06T05:12:29.750Z,2.18
2022-12-06T05:22:33.733Z,2.19
2022-12-06T05:32:39.463Z,2.22
2022-12-06T05:42:43.287Z,2.26
2022-12-06T05:52:46.886Z,2.36
2022-12-06T06:02:51.030Z,2.37
2022-12-06T06:12:54.994Z,2.38
2022-12-06T06:22:58.802Z,2.47
2022-12-06T06:33:02.397Z,2.51
2022-12-06T06:43:18.685Z,2.57
2022-12-06T06:53:22.570Z,2.54
2022-12-06T07:03:27.744Z,2.50
2022-12-06T07:13:32.342Z,2.60
2022-12-06T07:23:36.842Z,2.68
2022-12-06T07:33:41.829Z,2.74
2022-12-06T07:44:04.098Z,2.79
2022-12-06T07:54:08.313Z,2.81
2022-12-06T08:04:12.054Z,2.87
2022-12-06T08:14:16.142Z,2.96
2022-12-06T08:24:19.799Z,2.96
2022-12-06T08:34:23.402Z,2.93
2022-12-06T08:44:28.509Z,3.12
2022-12-06T08:54:32.362Z,3.17
2022-12-06T09:04:36.286Z,3.35
2022-12-06T09:14:40.018Z,3.35
2022-12-06T09:24:47.899Z,3.42
2022-12-06T09:34:51.962Z,3.61
2022-12-06T09:45:10.947Z,3.70
2022-12-06T09:55:14.498Z,3.64
2022-12-06T10:05:36.551Z,3.50
2022-12-06T10:16:11.523Z,3.44
2022-12-06T10:26:18.084Z,3.54
2022-12-06T10:37:13.069Z,3.43
2022-12-06T10:47:22.359Z,3.33
2022-12-06T10:58:04.344Z,3.33
2022-12-06T11:08:16.913Z,3.20
2022-12-06T11:18:21.145Z,3.16
2022-12-06T11:28:36.750Z,3.16
2022-12-06T11:38:43.018Z,3.13
2022-12-06T11:48:47.046Z,3.22
2022-12-06T11:59:22.206Z,3.17
2022-12-06T12:09:29.952Z,3.28
2022-12-06T12:19:50.995Z,3.24
2022-12-06T12:30:24.842Z,3.16
2022-12-06T12:40:51.338Z,3.10
2022-12-06T12:50:57.414Z,3.16
2022-12-06T13:01:41.204Z,3.37
2022-12-06T13:11:52.172Z,3.42
2022-12-06T13:21:56.124Z,3.45
2022-12-06T13:32:06.911Z,3.39
2022-12-06T13:42:24.263Z,3.34
2022-12-06T13:52:43.244Z,3.41
2022-12-06T14:02:47.172Z,3.42
2022-12-06T14:13:00.427Z,3.28
2022-12-06T14:23:21.012Z,3.20
2022-12-06T14:33:24.907Z,3.17
2022-12-06T14:43:47.488Z,3.16
2022-12-06T14:53:51.019Z,3.13
2022-12-06T15:03:58.647Z,3.17
2022-12-06T15:14:16.520Z,3.12
2022-12-06T15:24:23.193Z,3.14
2022-12-06T15:34:28.619Z,3.09
2022-12-06T15:44:32.170Z,3.03
2022-12-06T15:54:35.737Z,3.02
2022-12-06T16:04:40.675Z,2.99
2022-12-06T16:14:44.418Z,3.05
2022-12-06T16:24:53.660Z,3.04
2022-12-06T16:34:57.630Z,3.03
2022-12-06T16:45:01.351Z,3.05
2022-12-06T16:55:05.447Z,3.08
2022-12-06T17:05:18.512Z,3.09
2022-12-06T17:15:22.339Z,3.10
2022-12-06T17:25:26.009Z,3.08
2022-12-06T17:35:32.303Z,3.11
2022-12-06T17:45:35.947Z,3.05
2022-12-06T17:55:39.664Z,3.12
2022-12-06T18:05:45.109Z,3.11
2022-12-06T18:15:48.618Z,3.08
2022-12-06T18:25:52.223Z,3.12
2022-12-06T18:35:55.954Z,3.12
2022-12-06T18:46:06.728Z,3.12
2022-12-06T18:56:13.985Z,3.06
2022-12-06T19:06:24.494Z,3.01
2022-12-06T19:16:38.065Z,3.00
2022-12-06T19:26:42.531Z,2.96
2022-12-06T19:36:48.379Z,3.02
2022-12-06T19:46:52.697Z,3.01
2022-12-06T19:56:58.101Z,3.01
2022-12-06T20:07:02.342Z,3.05
2022-12-06T20:17:17.644Z,3.04
2022-12-06T20:27:41.298Z,3.01
2022-12-06T20:38:05.746Z,3.01
2022-12-06T20:48:14.779Z,3.00
2022-12-06T20:58:18.362Z,3.04
2022-12-06T21:08:21.957Z,2.98
2022-12-06T21:18:28.584Z,3.03
2022-12-06T21:28:33.865Z,3.03
2022-12-06T21:38:37.703Z,3.03
2022-12-06T21:48:42.033Z,3.05
2022-12-06T21:58:47.080Z,3.08
2022-12-06T22:08:58.237Z,3.04
2022-12-06T22:19:02.466Z,3.02
2022-12-06T22:29:06.345Z,2.92
2022-12-06T22:39:11.272Z,2.95
2022-12-06T22:49:17.981Z,2.97
2022-12-06T22:59:22.364Z,2.92
2022-12-06T23:09:28.005Z,2.96
2022-12-06T23:19:32.019Z,2.92
2022-12-06T23:29:35.991Z,2.90
2022-12-06T23:39:39.937Z,2.92
2022-12-06T23:49:43.452Z,2.89
2022-12-06T23:59:46.974Z,2.95
